sensor_id;sensor_type;location;lat;lon;timestamp;P1;durP1;ratioP1;P2;durP2;ratioP2
19782;SDS011;10051;40.294;-3.754;2023-04-24T00:02:22;3.25;;;0.90;;
19782;SDS011;10051;40.294;-3.754;2023-04-24T00:04:49;2.60;;;0.93;;
19782;SDS011;10051;40.294;-3.754;2023-04-24T00:07:14;3.38;;;1.10;;
19782;SDS011;10051;40.294;-3.754;2023-04-24T00:09:42;4.90;;;1.05;;
19782;SDS011;10051;40.294;-3.754;2023-04-24T00:12:08;2.90;;;1.00;;
19782;SDS011;10051;40.294;-3.754;2023-04-24T00:14:33;2.72;;;1.10;;
19782;SDS011;10051;40.294;-3.754;2023-04-24T00:17:00;2.45;;;0.95;;
19782;SDS011;10051;40.294;-3.754;2023-04-24T00:19:27;3.03;;;0.95;;
19782;SDS011;10051;40.294;-3.754;2023-04-24T00:21:53;4.25;;;1.00;;
19782;SDS011;10051;40.294;-3.754;2023-04-24T00:24:20;4.50;;;1.20;;
19782;SDS011;10051;40.294;-3.754;2023-04-24T00:26:46;2.53;;;1.00;;
19782;SDS011;10051;40.294;-3.754;2023-04-24T00:29:11;4.28;;;1.00;;
19782;SDS011;10051;40.294;-3.754;2023-04-24T00:31:37;4.65;;;1.10;;
19782;SDS011;10051;40.294;-3.754;2023-04-24T00:34:03;2.47;;;1.15;;
19782;SDS011;10051;40.294;-3.754;2023-04-24T00:36:29;4.13;;;1.10;;
19782;SDS011;10051;40.294;-3.754;2023-04-24T00:38:56;3.17;;;0.90;;
19782;SDS011;10051;40.294;-3.754;2023-04-24T00:41:22;2.20;;;0.90;;
19782;SDS011;10051;40.294;-3.754;2023-04-24T00:43:48;4.35;;;0.90;;
19782;SDS011;10051;40.294;-3.754;2023-04-24T00:46:14;2.60;;;0.90;;
19782;SDS011;10051;40.294;-3.754;2023-04-24T00:48:39;4.97;;;1.05;;
19782;SDS011;10051;40.294;-3.754;2023-04-24T00:51:05;3.45;;;1.00;;
19782;SDS011;10051;40.294;-3.754;2023-04-24T00:53:31;1.40;;;0.80;;
19782;SDS011;10051;40.294;-3.754;2023-04-24T00:55:57;3.72;;;1.00;;
19782;SDS011;10051;40.294;-3.754;2023-04-24T00:58:23;3.92;;;0.90;;
19782;SDS011;10051;40.294;-3.754;2023-04-24T01:00:50;2.13;;;0.90;;
19782;SDS011;10051;40.294;-3.754;2023-04-24T01:03:21;1.98;;;0.90;;
19782;SDS011;10051;40.294;-3.754;2023-04-24T01:05:49;2.05;;;0.80;;
19782;SDS011;10051;40.294;-3.754;2023-04-24T01:08:16;2.22;;;0.88;;
19782;SDS011;10051;40.294;-3.754;2023-04-24T01:10:42;1.95;;;0.80;;
19782;SDS011;10051;40.294;-3.754;2023-04-24T01:13:09;2.38;;;0.80;;
19782;SDS011;10051;40.294;-3.754;2023-04-24T01:15:35;4.40;;;0.80;;
19782;SDS011;10051;40.294;-3.754;2023-04-24T01:18:00;2.63;;;0.68;;
19782;SDS011;10051;40.294;-3.754;2023-04-24T01:20:26;1.58;;;0.60;;
19782;SDS011;10051;40.294;-3.754;2023-04-24T01:22:52;1.90;;;0.80;;
19782;SDS011;10051;40.294;-3.754;2023-04-24T01:25:19;2.45;;;0.65;;
19782;SDS011;10051;40.294;-3.754;2023-04-24T01:27:45;1.73;;;0.70;;
19782;SDS011;10051;40.294;-3.754;2023-04-24T01:30:11;0.93;;;0.68;;
19782;SDS011;10051;40.294;-3.754;2023-04-24T01:32:37;1.45;;;0.70;;
19782;SDS011;10051;40.294;-3.754;2023-04-24T01:35:04;1.05;;;0.50;;
19782;SDS011;10051;40.294;-3.754;2023-04-24T01:37:30;1.67;;;0.82;;
19782;SDS011;10051;40.294;-3.754;2023-04-24T01:39:57;1.75;;;0.80;;
19782;SDS011;10051;40.294;-3.754;2023-04-24T01:42:22;3.83;;;0.75;;
19782;SDS011;10051;40.294;-3.754;2023-04-24T01:44:48;2.85;;;0.80;;
19782;SDS011;10051;40.294;-3.754;2023-04-24T01:47:14;2.97;;;0.68;;
19782;SDS011;10051;40.294;-3.754;2023-04-24T01:49:40;2.40;;;0.85;;
19782;SDS011;10051;40.294;-3.754;2023-04-24T01:52:06;1.42;;;0.80;;
19782;SDS011;10051;40.294;-3.754;2023-04-24T01:54:31;2.83;;;0.80;;
19782;SDS011;10051;40.294;-3.754;2023-04-24T01:56:57;2.08;;;0.70;;
19782;SDS011;10051;40.294;-3.754;2023-04-24T01:59:22;2.28;;;0.68;;
19782;SDS011;10051;40.294;-3.754;2023-04-24T02:01:50;1.30;;;0.75;;
19782;SDS011;10051;40.294;-3.754;2023-04-24T02:04:15;2.45;;;0.60;;
19782;SDS011;10051;40.294;-3.754;2023-04-24T02:06:41;1.38;;;0.68;;
19782;SDS011;10051;40.294;-3.754;2023-04-24T02:09:07;2.75;;;0.65;;
19782;SDS011;10051;40.294;-3.754;2023-04-24T02:11:33;2.20;;;0.70;;
19782;SDS011;10051;40.294;-3.754;2023-04-24T02:13:58;1.67;;;0.70;;
19782;SDS011;10051;40.294;-3.754;2023-04-24T02:16:23;2.05;;;0.63;;
19782;SDS011;10051;40.294;-3.754;2023-04-24T02:18:49;2.53;;;0.70;;
19782;SDS011;10051;40.294;-3.754;2023-04-24T02:21:15;1.58;;;0.60;;
19782;SDS011;10051;40.294;-3.754;2023-04-24T02:23:40;1.45;;;0.70;;
19782;SDS011;10051;40.294;-3.754;2023-04-24T02:26:06;2.45;;;0.70;;
19782;SDS011;10051;40.294;-3.754;2023-04-24T02:28:31;1.75;;;0.60;;
19782;SDS011;10051;40.294;-3.754;2023-04-24T02:30:57;2.10;;;0.60;;
19782;SDS011;10051;40.294;-3.754;2023-04-24T02:33:23;1.60;;;0.60;;
19782;SDS011;10051;40.294;-3.754;2023-04-24T02:35:49;2.78;;;0.80;;
19782;SDS011;10051;40.294;-3.754;2023-04-24T02:38:14;1.30;;;0.63;;
19782;SDS011;10051;40.294;-3.754;2023-04-24T02:40:40;1.40;;;0.55;;
19782;SDS011;10051;40.294;-3.754;2023-04-24T02:43:05;1.30;;;0.65;;
19782;SDS011;10051;40.294;-3.754;2023-04-24T02:45:31;2.25;;;0.80;;
19782;SDS011;10051;40.294;-3.754;2023-04-24T02:47:59;2.08;;;0.70;;
19782;SDS011;10051;40.294;-3.754;2023-04-24T02:50:25;1.83;;;0.70;;
19782;SDS011;10051;40.294;-3.754;2023-04-24T02:52:50;1.33;;;0.70;;
19782;SDS011;10051;40.294;-3.754;2023-04-24T02:55:16;0.93;;;0.60;;
19782;SDS011;10051;40.294;-3.754;2023-04-24T02:57:41;1.40;;;0.70;;
19782;SDS011;10051;40.294;-3.754;2023-04-24T03:00:07;1.63;;;0.60;;
19782;SDS011;10051;40.294;-3.754;2023-04-24T03:02:34;2.92;;;0.75;;
19782;SDS011;10051;40.294;-3.754;2023-04-24T03:04:59;1.85;;;0.73;;
19782;SDS011;10051;40.294;-3.754;2023-04-24T03:07:25;1.75;;;0.70;;
19782;SDS011;10051;40.294;-3.754;2023-04-24T03:09:50;2.58;;;0.80;;
19782;SDS011;10051;40.294;-3.754;2023-04-24T03:12:16;3.00;;;0.90;;
19782;SDS011;10051;40.294;-3.754;2023-04-24T03:14:43;1.15;;;0.77;;
19782;SDS011;10051;40.294;-3.754;2023-04-24T03:17:08;1.63;;;0.70;;
19782;SDS011;10051;40.294;-3.754;2023-04-24T03:19:34;1.80;;;0.60;;
19782;SDS011;10051;40.294;-3.754;2023-04-24T03:22:01;1.90;;;0.70;;
19782;SDS011;10051;40.294;-3.754;2023-04-24T03:24:27;1.60;;;0.80;;
19782;SDS011;10051;40.294;-3.754;2023-04-24T03:26:53;2.08;;;0.70;;
19782;SDS011;10051;40.294;-3.754;2023-04-24T03:29:19;2.40;;;0.88;;
19782;SDS011;10051;40.294;-3.754;2023-04-24T03:31:44;2.03;;;0.80;;
19782;SDS011;10051;40.294;-3.754;2023-04-24T03:34:10;1.38;;;0.75;;
19782;SDS011;10051;40.294;-3.754;2023-04-24T03:36:36;3.00;;;0.75;;
19782;SDS011;10051;40.294;-3.754;2023-04-24T03:39:01;2.35;;;0.80;;
19782;SDS011;10051;40.294;-3.754;2023-04-24T03:41:27;2.35;;;0.90;;
19782;SDS011;10051;40.294;-3.754;2023-04-24T03:43:52;2.25;;;0.80;;
19782;SDS011;10051;40.294;-3.754;2023-04-24T03:46:18;0.82;;;0.70;;
19782;SDS011;10051;40.294;-3.754;2023-04-24T03:48:44;2.72;;;0.85;;
19782;SDS011;10051;40.294;-3.754;2023-04-24T03:51:09;3.78;;;0.90;;
19782;SDS011;10051;40.294;-3.754;2023-04-24T03:53:35;3.22;;;0.80;;
19782;SDS011;10051;40.294;-3.754;2023-04-24T03:56:01;1.75;;;0.80;;
19782;SDS011;10051;40.294;-3.754;2023-04-24T03:58:26;3.72;;;0.77;;
19782;SDS011;10051;40.294;-3.754;2023-04-24T04:00:52;2.60;;;0.90;;
19782;SDS011;10051;40.294;-3.754;2023-04-24T04:03:17;2.17;;;0.85;;
19782;SDS011;10051;40.294;-3.754;2023-04-24T04:05:43;1.88;;;0.90;;
19782;SDS011;10051;40.294;-3.754;2023-04-24T04:08:08;1.25;;;0.65;;
19782;SDS011;10051;40.294;-3.754;2023-04-24T04:10:34;3.08;;;0.90;;
19782;SDS011;10051;40.294;-3.754;2023-04-24T04:12:59;2.28;;;0.93;;
19782;SDS011;10051;40.294;-3.754;2023-04-24T04:15:25;3.00;;;0.90;;
19782;SDS011;10051;40.294;-3.754;2023-04-24T04:17:50;2.50;;;1.00;;
19782;SDS011;10051;40.294;-3.754;2023-04-24T04:20:16;1.35;;;0.70;;
19782;SDS011;10051;40.294;-3.754;2023-04-24T04:22:41;2.22;;;0.90;;
19782;SDS011;10051;40.294;-3.754;2023-04-24T04:25:07;2.13;;;0.95;;
19782;SDS011;10051;40.294;-3.754;2023-04-24T04:27:33;3.10;;;0.85;;
19782;SDS011;10051;40.294;-3.754;2023-04-24T04:29:59;1.58;;;0.90;;
19782;SDS011;10051;40.294;-3.754;2023-04-24T04:32:30;1.67;;;0.90;;
19782;SDS011;10051;40.294;-3.754;2023-04-24T04:34:58;1.48;;;0.90;;
19782;SDS011;10051;40.294;-3.754;2023-04-24T04:37:34;3.60;;;0.90;;
19782;SDS011;10051;40.294;-3.754;2023-04-24T04:40:00;3.33;;;1.00;;
19782;SDS011;10051;40.294;-3.754;2023-04-24T04:42:31;3.40;;;0.80;;
19782;SDS011;10051;40.294;-3.754;2023-04-24T04:44:57;3.13;;;1.00;;
19782;SDS011;10051;40.294;-3.754;2023-04-24T04:47:23;2.95;;;0.93;;
19782;SDS011;10051;40.294;-3.754;2023-04-24T04:49:49;2.17;;;0.90;;
19782;SDS011;10051;40.294;-3.754;2023-04-24T04:52:16;1.15;;;0.80;;
19782;SDS011;10051;40.294;-3.754;2023-04-24T04:54:42;2.17;;;0.90;;
19782;SDS011;10051;40.294;-3.754;2023-04-24T04:57:08;1.50;;;0.80;;
19782;SDS011;10051;40.294;-3.754;2023-04-24T04:59:34;1.83;;;0.90;;
19782;SDS011;10051;40.294;-3.754;2023-04-24T05:02:00;2.88;;;0.85;;
19782;SDS011;10051;40.294;-3.754;2023-04-24T05:04:25;4.80;;;0.95;;
19782;SDS011;10051;40.294;-3.754;2023-04-24T05:06:51;2.03;;;0.80;;
19782;SDS011;10051;40.294;-3.754;2023-04-24T05:09:17;3.13;;;1.00;;
19782;SDS011;10051;40.294;-3.754;2023-04-24T05:11:43;3.53;;;1.00;;
19782;SDS011;10051;40.294;-3.754;2023-04-24T05:14:09;1.17;;;0.88;;
19782;SDS011;10051;40.294;-3.754;2023-04-24T05:16:35;1.95;;;0.85;;
19782;SDS011;10051;40.294;-3.754;2023-04-24T05:19:02;3.35;;;0.90;;
19782;SDS011;10051;40.294;-3.754;2023-04-24T05:21:28;1.60;;;1.00;;
19782;SDS011;10051;40.294;-3.754;2023-04-24T05:23:54;2.58;;;1.00;;
19782;SDS011;10051;40.294;-3.754;2023-04-24T05:26:19;4.20;;;1.00;;
19782;SDS011;10051;40.294;-3.754;2023-04-24T05:28:45;2.80;;;0.95;;
19782;SDS011;10051;40.294;-3.754;2023-04-24T05:31:10;1.85;;;0.95;;
19782;SDS011;10051;40.294;-3.754;2023-04-24T05:33:37;1.70;;;1.00;;
19782;SDS011;10051;40.294;-3.754;2023-04-24T05:36:03;2.47;;;1.20;;
19782;SDS011;10051;40.294;-3.754;2023-04-24T05:38:30;6.53;;;1.05;;
19782;SDS011;10051;40.294;-3.754;2023-04-24T05:40:56;2.85;;;1.20;;
19782;SDS011;10051;40.294;-3.754;2023-04-24T05:43:21;3.00;;;1.05;;
19782;SDS011;10051;40.294;-3.754;2023-04-24T05:45:47;2.28;;;1.02;;
19782;SDS011;10051;40.294;-3.754;2023-04-24T05:48:12;3.80;;;1.02;;
19782;SDS011;10051;40.294;-3.754;2023-04-24T05:50:38;3.47;;;1.10;;
19782;SDS011;10051;40.294;-3.754;2023-04-24T05:53:03;2.50;;;1.05;;
19782;SDS011;10051;40.294;-3.754;2023-04-24T05:55:30;5.45;;;1.20;;
19782;SDS011;10051;40.294;-3.754;2023-04-24T05:57:56;3.33;;;0.90;;
19782;SDS011;10051;40.294;-3.754;2023-04-24T06:00:22;3.40;;;1.00;;
19782;SDS011;10051;40.294;-3.754;2023-04-24T06:02:47;3.42;;;1.05;;
19782;SDS011;10051;40.294;-3.754;2023-04-24T06:05:13;1.70;;;1.00;;
19782;SDS011;10051;40.294;-3.754;2023-04-24T06:07:39;3.60;;;1.10;;
19782;SDS011;10051;40.294;-3.754;2023-04-24T06:10:05;4.68;;;1.23;;
19782;SDS011;10051;40.294;-3.754;2023-04-24T06:12:31;3.03;;;1.15;;
19782;SDS011;10051;40.294;-3.754;2023-04-24T06:14:56;3.65;;;1.20;;
19782;SDS011;10051;40.294;-3.754;2023-04-24T06:17:22;5.30;;;1.15;;
19782;SDS011;10051;40.294;-3.754;2023-04-24T06:19:48;5.13;;;1.30;;
19782;SDS011;10051;40.294;-3.754;2023-04-24T06:22:13;10.63;;;1.40;;
19782;SDS011;10051;40.294;-3.754;2023-04-24T06:24:41;5.85;;;1.50;;
19782;SDS011;10051;40.294;-3.754;2023-04-24T06:27:07;3.28;;;1.20;;
19782;SDS011;10051;40.294;-3.754;2023-04-24T06:29:33;6.95;;;1.35;;
19782;SDS011;10051;40.294;-3.754;2023-04-24T06:31:59;5.47;;;1.50;;
19782;SDS011;10051;40.294;-3.754;2023-04-24T06:34:24;5.55;;;1.50;;
19782;SDS011;10051;40.294;-3.754;2023-04-24T06:36:50;3.95;;;1.30;;
19782;SDS011;10051;40.294;-3.754;2023-04-24T06:39:16;4.88;;;1.63;;
19782;SDS011;10051;40.294;-3.754;2023-04-24T06:41:41;5.68;;;1.63;;
19782;SDS011;10051;40.294;-3.754;2023-04-24T06:44:07;6.15;;;1.60;;
19782;SDS011;10051;40.294;-3.754;2023-04-24T06:46:32;7.57;;;1.80;;
19782;SDS011;10051;40.294;-3.754;2023-04-24T06:48:58;5.78;;;1.60;;
19782;SDS011;10051;40.294;-3.754;2023-04-24T06:51:24;7.18;;;1.63;;
19782;SDS011;10051;40.294;-3.754;2023-04-24T06:53:51;5.22;;;1.63;;
19782;SDS011;10051;40.294;-3.754;2023-04-24T06:56:17;4.68;;;1.70;;
19782;SDS011;10051;40.294;-3.754;2023-04-24T06:58:43;6.55;;;1.70;;
19782;SDS011;10051;40.294;-3.754;2023-04-24T07:01:10;6.00;;;1.60;;
19782;SDS011;10051;40.294;-3.754;2023-04-24T07:03:36;9.30;;;1.55;;
19782;SDS011;10051;40.294;-3.754;2023-04-24T07:06:01;10.90;;;2.28;;
19782;SDS011;10051;40.294;-3.754;2023-04-24T07:08:28;5.32;;;1.70;;
19782;SDS011;10051;40.294;-3.754;2023-04-24T07:10:55;5.10;;;1.40;;
19782;SDS011;10051;40.294;-3.754;2023-04-24T07:13:21;7.85;;;1.52;;
19782;SDS011;10051;40.294;-3.754;2023-04-24T07:15:48;3.60;;;1.52;;
19782;SDS011;10051;40.294;-3.754;2023-04-24T07:18:16;3.45;;;1.48;;
19782;SDS011;10051;40.294;-3.754;2023-04-24T07:20:42;7.03;;;1.60;;
19782;SDS011;10051;40.294;-3.754;2023-04-24T07:23:07;4.35;;;1.70;;
19782;SDS011;10051;40.294;-3.754;2023-04-24T07:25:33;5.35;;;1.80;;
19782;SDS011;10051;40.294;-3.754;2023-04-24T07:27:59;3.95;;;1.30;;
19782;SDS011;10051;40.294;-3.754;2023-04-24T07:30:25;2.53;;;1.20;;
19782;SDS011;10051;40.294;-3.754;2023-04-24T07:32:50;5.85;;;1.30;;
19782;SDS011;10051;40.294;-3.754;2023-04-24T07:35:16;3.85;;;1.23;;
19782;SDS011;10051;40.294;-3.754;2023-04-24T07:37:42;5.05;;;1.38;;
19782;SDS011;10051;40.294;-3.754;2023-04-24T07:40:11;6.18;;;1.30;;
19782;SDS011;10051;40.294;-3.754;2023-04-24T07:42:40;4.38;;;0.95;;
19782;SDS011;10051;40.294;-3.754;2023-04-24T07:45:06;2.65;;;1.10;;
19782;SDS011;10051;40.294;-3.754;2023-04-24T07:47:32;2.47;;;1.00;;
19782;SDS011;10051;40.294;-3.754;2023-04-24T07:49:58;5.05;;;1.00;;
19782;SDS011;10051;40.294;-3.754;2023-04-24T07:52:24;1.60;;;0.70;;
19782;SDS011;10051;40.294;-3.754;2023-04-24T07:54:50;2.25;;;0.80;;
19782;SDS011;10051;40.294;-3.754;2023-04-24T07:57:16;5.20;;;1.20;;
19782;SDS011;10051;40.294;-3.754;2023-04-24T07:59:41;2.10;;;0.88;;
19782;SDS011;10051;40.294;-3.754;2023-04-24T08:02:07;3.03;;;1.00;;
19782;SDS011;10051;40.294;-3.754;2023-04-24T08:04:32;2.35;;;0.95;;
19782;SDS011;10051;40.294;-3.754;2023-04-24T08:06:58;3.25;;;0.90;;
19782;SDS011;10051;40.294;-3.754;2023-04-24T08:09:24;2.28;;;0.90;;
19782;SDS011;10051;40.294;-3.754;2023-04-24T08:11:49;2.42;;;0.90;;
19782;SDS011;10051;40.294;-3.754;2023-04-24T08:14:15;2.45;;;1.08;;
19782;SDS011;10051;40.294;-3.754;2023-04-24T08:16:41;3.38;;;1.17;;
19782;SDS011;10051;40.294;-3.754;2023-04-24T08:19:06;2.15;;;1.00;;
19782;SDS011;10051;40.294;-3.754;2023-04-24T08:21:32;2.90;;;0.80;;
19782;SDS011;10051;40.294;-3.754;2023-04-24T08:23:57;7.20;;;1.10;;
19782;SDS011;10051;40.294;-3.754;2023-04-24T08:26:30;1.98;;;0.90;;
19782;SDS011;10051;40.294;-3.754;2023-04-24T08:28:55;3.25;;;0.70;;
19782;SDS011;10051;40.294;-3.754;2023-04-24T08:31:21;3.63;;;0.93;;
19782;SDS011;10051;40.294;-3.754;2023-04-24T08:33:47;2.08;;;0.88;;
19782;SDS011;10051;40.294;-3.754;2023-04-24T08:36:13;2.90;;;0.90;;
19782;SDS011;10051;40.294;-3.754;2023-04-24T08:38:39;2.70;;;0.90;;
19782;SDS011;10051;40.294;-3.754;2023-04-24T08:41:05;3.88;;;1.00;;
19782;SDS011;10051;40.294;-3.754;2023-04-24T08:43:31;2.75;;;0.80;;
19782;SDS011;10051;40.294;-3.754;2023-04-24T08:45:58;4.53;;;0.90;;
19782;SDS011;10051;40.294;-3.754;2023-04-24T08:48:24;3.53;;;0.90;;
19782;SDS011;10051;40.294;-3.754;2023-04-24T08:50:50;3.63;;;1.00;;
19782;SDS011;10051;40.294;-3.754;2023-04-24T08:53:16;3.42;;;0.90;;
19782;SDS011;10051;40.294;-3.754;2023-04-24T08:55:43;4.13;;;0.90;;
19782;SDS011;10051;40.294;-3.754;2023-04-24T08:58:13;5.75;;;1.20;;
19782;SDS011;10051;40.294;-3.754;2023-04-24T09:00:39;5.70;;;1.00;;
19782;SDS011;10051;40.294;-3.754;2023-04-24T09:03:09;2.00;;;0.80;;
19782;SDS011;10051;40.294;-3.754;2023-04-24T09:05:35;2.38;;;1.00;;
19782;SDS011;10051;40.294;-3.754;2023-04-24T09:08:01;3.78;;;0.90;;
19782;SDS011;10051;40.294;-3.754;2023-04-24T09:10:27;2.35;;;0.90;;
19782;SDS011;10051;40.294;-3.754;2023-04-24T09:12:55;2.72;;;0.80;;
19782;SDS011;10051;40.294;-3.754;2023-04-24T09:15:23;1.98;;;0.90;;
19782;SDS011;10051;40.294;-3.754;2023-04-24T09:17:49;1.42;;;0.73;;
19782;SDS011;10051;40.294;-3.754;2023-04-24T09:20:15;3.05;;;0.98;;
19782;SDS011;10051;40.294;-3.754;2023-04-24T09:22:41;7.55;;;1.10;;
19782;SDS011;10051;40.294;-3.754;2023-04-24T09:25:08;4.65;;;1.20;;
19782;SDS011;10051;40.294;-3.754;2023-04-24T09:27:36;2.25;;;0.80;;
19782;SDS011;10051;40.294;-3.754;2023-04-24T09:30:08;3.63;;;1.00;;
19782;SDS011;10051;40.294;-3.754;2023-04-24T09:32:34;1.70;;;0.90;;
19782;SDS011;10051;40.294;-3.754;2023-04-24T09:35:10;2.45;;;1.02;;
19782;SDS011;10051;40.294;-3.754;2023-04-24T09:37:41;1.63;;;1.00;;
19782;SDS011;10051;40.294;-3.754;2023-04-24T09:40:19;3.08;;;1.10;;
19782;SDS011;10051;40.294;-3.754;2023-04-24T09:42:52;3.80;;;1.13;;
19782;SDS011;10051;40.294;-3.754;2023-04-24T09:45:19;2.90;;;1.40;;
19782;SDS011;10051;40.294;-3.754;2023-04-24T09:47:45;4.90;;;1.10;;
19782;SDS011;10051;40.294;-3.754;2023-04-24T09:52:42;3.15;;;1.10;;
19782;SDS011;10051;40.294;-3.754;2023-04-24T09:55:16;2.60;;;0.90;;
19782;SDS011;10051;40.294;-3.754;2023-04-24T09:57:52;5.60;;;1.17;;
19782;SDS011;10051;40.294;-3.754;2023-04-24T10:00:23;3.00;;;1.08;;
19782;SDS011;10051;40.294;-3.754;2023-04-24T10:02:54;3.08;;;1.02;;
19782;SDS011;10051;40.294;-3.754;2023-04-24T10:05:24;2.08;;;1.00;;
19782;SDS011;10051;40.294;-3.754;2023-04-24T10:07:55;5.85;;;1.10;;
19782;SDS011;10051;40.294;-3.754;2023-04-24T10:10:22;3.25;;;0.90;;
19782;SDS011;10051;40.294;-3.754;2023-04-24T10:12:48;3.88;;;1.10;;
19782;SDS011;10051;40.294;-3.754;2023-04-24T10:15:16;4.50;;;1.20;;
19782;SDS011;10051;40.294;-3.754;2023-04-24T10:17:46;5.13;;;1.00;;
19782;SDS011;10051;40.294;-3.754;2023-04-24T10:20:17;3.55;;;1.17;;
19782;SDS011;10051;40.294;-3.754;2023-04-24T10:22:46;2.17;;;1.00;;
19782;SDS011;10051;40.294;-3.754;2023-04-24T10:25:21;7.00;;;1.15;;
19782;SDS011;10051;40.294;-3.754;2023-04-24T10:27:52;4.57;;;1.10;;
19782;SDS011;10051;40.294;-3.754;2023-04-24T10:30:22;2.90;;;1.08;;
19782;SDS011;10051;40.294;-3.754;2023-04-24T10:32:48;3.80;;;1.08;;
19782;SDS011;10051;40.294;-3.754;2023-04-24T10:35:14;4.80;;;1.20;;
19782;SDS011;10051;40.294;-3.754;2023-04-24T10:37:45;2.90;;;1.23;;
19782;SDS011;10051;40.294;-3.754;2023-04-24T10:40:24;4.85;;;1.30;;
19782;SDS011;10051;40.294;-3.754;2023-04-24T10:42:52;5.85;;;1.08;;
19782;SDS011;10051;40.294;-3.754;2023-04-24T10:45:21;5.93;;;1.88;;
19782;SDS011;10051;40.294;-3.754;2023-04-24T10:47:53;3.95;;;1.20;;
19782;SDS011;10051;40.294;-3.754;2023-04-24T10:50:29;4.43;;;0.98;;
19782;SDS011;10051;40.294;-3.754;2023-04-24T10:53:09;2.95;;;0.90;;
19782;SDS011;10051;40.294;-3.754;2023-04-24T10:58:08;3.78;;;1.00;;
19782;SDS011;10051;40.294;-3.754;2023-04-24T11:00:36;4.45;;;0.88;;
19782;SDS011;10051;40.294;-3.754;2023-04-24T11:03:25;2.53;;;0.95;;
19782;SDS011;10051;40.294;-3.754;2023-04-24T11:08:30;2.58;;;1.00;;
19782;SDS011;10051;40.294;-3.754;2023-04-24T11:10:59;2.67;;;1.00;;
19782;SDS011;10051;40.294;-3.754;2023-04-24T11:13:27;2.08;;;1.10;;
19782;SDS011;10051;40.294;-3.754;2023-04-24T11:16:20;2.00;;;0.90;;
19782;SDS011;10051;40.294;-3.754;2023-04-24T11:22:02;1.90;;;0.98;;
19782;SDS011;10051;40.294;-3.754;2023-04-24T11:26:59;1.73;;;0.80;;
19782;SDS011;10051;40.294;-3.754;2023-04-24T11:30:05;2.03;;;1.05;;
19782;SDS011;10051;40.294;-3.754;2023-04-24T11:37:44;2.63;;;0.80;;
19782;SDS011;10051;40.294;-3.754;2023-04-24T11:40:12;3.22;;;0.90;;
19782;SDS011;10051;40.294;-3.754;2023-04-24T11:42:42;1.30;;;0.70;;
19782;SDS011;10051;40.294;-3.754;2023-04-24T11:45:12;3.35;;;0.90;;
19782;SDS011;10051;40.294;-3.754;2023-04-24T11:47:44;9.70;;;1.00;;
19782;SDS011;10051;40.294;-3.754;2023-04-24T11:50:17;2.88;;;0.90;;
19782;SDS011;10051;40.294;-3.754;2023-04-24T11:52:45;2.78;;;0.90;;
19782;SDS011;10051;40.294;-3.754;2023-04-24T11:57:45;3.55;;;1.00;;
19782;SDS011;10051;40.294;-3.754;2023-04-24T12:00:21;2.60;;;0.93;;
19782;SDS011;10051;40.294;-3.754;2023-04-24T12:02:48;3.70;;;1.00;;
19782;SDS011;10051;40.294;-3.754;2023-04-24T12:05:29;3.15;;;0.80;;
19782;SDS011;10051;40.294;-3.754;2023-04-24T12:07:58;3.50;;;1.08;;
19782;SDS011;10051;40.294;-3.754;2023-04-24T12:10:25;3.58;;;1.00;;
19782;SDS011;10051;40.294;-3.754;2023-04-24T12:12:55;5.03;;;1.20;;
19782;SDS011;10051;40.294;-3.754;2023-04-24T12:15:21;4.95;;;1.10;;
19782;SDS011;10051;40.294;-3.754;2023-04-24T12:17:48;1.75;;;0.90;;
19782;SDS011;10051;40.294;-3.754;2023-04-24T12:20:16;2.85;;;0.90;;
19782;SDS011;10051;40.294;-3.754;2023-04-24T12:22:45;4.07;;;1.00;;
19782;SDS011;10051;40.294;-3.754;2023-04-24T12:25:12;1.45;;;0.80;;
19782;SDS011;10051;40.294;-3.754;2023-04-24T12:27:45;3.00;;;0.90;;
19782;SDS011;10051;40.294;-3.754;2023-04-24T12:30:13;4.15;;;0.98;;
19782;SDS011;10051;40.294;-3.754;2023-04-24T12:32:48;2.78;;;0.95;;
19782;SDS011;10051;40.294;-3.754;2023-04-24T12:35:21;2.65;;;0.90;;
19782;SDS011;10051;40.294;-3.754;2023-04-24T12:37:48;2.28;;;0.90;;
19782;SDS011;10051;40.294;-3.754;2023-04-24T12:40:14;2.28;;;1.00;;
19782;SDS011;10051;40.294;-3.754;2023-04-24T12:42:47;2.33;;;1.00;;
19782;SDS011;10051;40.294;-3.754;2023-04-24T12:45:15;3.50;;;1.08;;
19782;SDS011;10051;40.294;-3.754;2023-04-24T12:47:42;3.10;;;0.95;;
19782;SDS011;10051;40.294;-3.754;2023-04-24T12:50:09;1.60;;;0.70;;
19782;SDS011;10051;40.294;-3.754;2023-04-24T12:52:36;2.88;;;0.70;;
19782;SDS011;10051;40.294;-3.754;2023-04-24T12:55:02;2.50;;;0.80;;
19782;SDS011;10051;40.294;-3.754;2023-04-24T12:57:29;3.38;;;0.80;;
19782;SDS011;10051;40.294;-3.754;2023-04-24T12:59:56;2.47;;;0.93;;
19782;SDS011;10051;40.294;-3.754;2023-04-24T13:02:23;1.80;;;0.70;;
19782;SDS011;10051;40.294;-3.754;2023-04-24T13:04:50;2.63;;;0.80;;
19782;SDS011;10051;40.294;-3.754;2023-04-24T13:07:16;4.18;;;1.00;;
19782;SDS011;10051;40.294;-3.754;2023-04-24T13:09:42;2.47;;;0.90;;
19782;SDS011;10051;40.294;-3.754;2023-04-24T13:12:09;2.90;;;0.80;;
19782;SDS011;10051;40.294;-3.754;2023-04-24T13:14:36;2.22;;;0.90;;
19782;SDS011;10051;40.294;-3.754;2023-04-24T13:17:02;3.30;;;0.73;;
19782;SDS011;10051;40.294;-3.754;2023-04-24T13:19:35;2.63;;;0.82;;
19782;SDS011;10051;40.294;-3.754;2023-04-24T13:22:01;2.30;;;0.82;;
19782;SDS011;10051;40.294;-3.754;2023-04-24T13:24:27;4.05;;;0.82;;
19782;SDS011;10051;40.294;-3.754;2023-04-24T13:26:53;2.65;;;1.08;;
19782;SDS011;10051;40.294;-3.754;2023-04-24T13:29:19;2.97;;;1.20;;
19782;SDS011;10051;40.294;-3.754;2023-04-24T13:31:46;3.70;;;1.00;;
19782;SDS011;10051;40.294;-3.754;2023-04-24T13:34:12;2.45;;;1.00;;
19782;SDS011;10051;40.294;-3.754;2023-04-24T13:36:38;2.88;;;0.90;;
19782;SDS011;10051;40.294;-3.754;2023-04-24T13:39:04;3.03;;;1.10;;
19782;SDS011;10051;40.294;-3.754;2023-04-24T13:41:30;2.38;;;1.00;;
19782;SDS011;10051;40.294;-3.754;2023-04-24T13:43:57;5.25;;;1.00;;
19782;SDS011;10051;40.294;-3.754;2023-04-24T13:46:23;2.80;;;0.80;;
19782;SDS011;10051;40.294;-3.754;2023-04-24T13:48:49;3.08;;;1.00;;
19782;SDS011;10051;40.294;-3.754;2023-04-24T13:51:14;2.08;;;0.80;;
19782;SDS011;10051;40.294;-3.754;2023-04-24T13:53:40;2.88;;;0.90;;
19782;SDS011;10051;40.294;-3.754;2023-04-24T13:56:06;3.15;;;0.88;;
19782;SDS011;10051;40.294;-3.754;2023-04-24T13:58:31;2.25;;;0.90;;
19782;SDS011;10051;40.294;-3.754;2023-04-24T14:00:57;1.95;;;0.90;;
19782;SDS011;10051;40.294;-3.754;2023-04-24T14:03:23;3.47;;;0.80;;
19782;SDS011;10051;40.294;-3.754;2023-04-24T14:05:49;3.35;;;1.00;;
19782;SDS011;10051;40.294;-3.754;2023-04-24T14:08:14;3.30;;;0.70;;
19782;SDS011;10051;40.294;-3.754;2023-04-24T14:10:40;1.67;;;0.70;;
19782;SDS011;10051;40.294;-3.754;2023-04-24T14:13:07;2.60;;;0.90;;
19782;SDS011;10051;40.294;-3.754;2023-04-24T14:15:33;3.42;;;0.90;;
19782;SDS011;10051;40.294;-3.754;2023-04-24T14:17:58;3.28;;;0.75;;
19782;SDS011;10051;40.294;-3.754;2023-04-24T14:20:24;4.28;;;0.80;;
19782;SDS011;10051;40.294;-3.754;2023-04-24T14:22:49;3.35;;;0.90;;
19782;SDS011;10051;40.294;-3.754;2023-04-24T14:25:15;1.48;;;0.70;;
19782;SDS011;10051;40.294;-3.754;2023-04-24T14:27:41;2.90;;;0.70;;
19782;SDS011;10051;40.294;-3.754;2023-04-24T14:30:07;2.45;;;0.60;;
19782;SDS011;10051;40.294;-3.754;2023-04-24T14:32:33;1.48;;;0.60;;
19782;SDS011;10051;40.294;-3.754;2023-04-24T14:34:59;1.77;;;0.70;;
19782;SDS011;10051;40.294;-3.754;2023-04-24T14:37:25;4.32;;;0.80;;
19782;SDS011;10051;40.294;-3.754;2023-04-24T14:39:50;1.58;;;0.88;;
19782;SDS011;10051;40.294;-3.754;2023-04-24T14:42:16;1.73;;;0.70;;
19782;SDS011;10051;40.294;-3.754;2023-04-24T14:44:42;2.17;;;0.80;;
19782;SDS011;10051;40.294;-3.754;2023-04-24T14:47:07;3.78;;;0.73;;
19782;SDS011;10051;40.294;-3.754;2023-04-24T14:49:33;1.52;;;0.70;;
19782;SDS011;10051;40.294;-3.754;2023-04-24T14:51:59;2.60;;;0.90;;
19782;SDS011;10051;40.294;-3.754;2023-04-24T14:54:24;1.67;;;0.80;;